Aviation Digital Data Service (ADDS)

Output produced by METARs form (1815 UTC 28 April 2015)
found at http://aviationweather.gov/adds/metars/
 
KAND 281731Z 2818/2918 VRB05KT P6SM BKN250 
     FM290300 00000KT P6SM BKN060 
     FM290800 06005KT P6SM -SHRA OVC030 
     FM291200 06004KT P6SM -SHRA OVC015 
     FM291500 06006KT 4SM -SHRA BR OVC008